sensor_id;sensor_type;location;lat;lon;timestamp;temperature;humidity
13711;DHT22;6927;51.256;9.410;2023-07-31T00:00:29;16.50;99.90
13711;DHT22;6927;51.256;9.410;2023-07-31T00:02:55;16.50;99.90
13711;DHT22;6927;51.256;9.410;2023-07-31T00:05:21;16.40;99.90
13711;DHT22;6927;51.256;9.410;2023-07-31T00:07:46;16.40;99.90
13711;DHT22;6927;51.256;9.410;2023-07-31T00:10:12;16.50;99.90
13711;DHT22;6927;51.256;9.410;2023-07-31T00:12:39;16.50;99.90
13711;DHT22;6927;51.256;9.410;2023-07-31T00:15:06;16.50;99.90
13711;DHT22;6927;51.256;9.410;2023-07-31T00:17:32;16.40;99.90
13711;DHT22;6927;51.256;9.410;2023-07-31T00:19:58;16.40;99.90
13711;DHT22;6927;51.256;9.410;2023-07-31T00:22:23;16.40;99.90
13711;DHT22;6927;51.256;9.410;2023-07-31T00:24:49;16.40;99.90
13711;DHT22;6927;51.256;9.410;2023-07-31T00:27:15;16.50;99.90
13711;DHT22;6927;51.256;9.410;2023-07-31T00:29:44;16.50;99.90
13711;DHT22;6927;51.256;9.410;2023-07-31T00:32:09;16.50;99.90
13711;DHT22;6927;51.256;9.410;2023-07-31T00:34:35;16.60;99.90
13711;DHT22;6927;51.256;9.410;2023-07-31T00:37:01;16.60;99.90
13711;DHT22;6927;51.256;9.410;2023-07-31T00:39:26;16.60;99.90
13711;DHT22;6927;51.256;9.410;2023-07-31T00:41:52;16.60;99.90
13711;DHT22;6927;51.256;9.410;2023-07-31T00:44:18;16.60;99.90
13711;DHT22;6927;51.256;9.410;2023-07-31T00:46:44;16.60;99.90
13711;DHT22;6927;51.256;9.410;2023-07-31T00:49:10;16.60;99.90
13711;DHT22;6927;51.256;9.410;2023-07-31T00:51:36;16.60;99.90
13711;DHT22;6927;51.256;9.410;2023-07-31T00:54:03;16.60;99.90
13711;DHT22;6927;51.256;9.410;2023-07-31T00:56:29;16.60;99.90
13711;DHT22;6927;51.256;9.410;2023-07-31T00:58:55;16.60;99.90
13711;DHT22;6927;51.256;9.410;2023-07-31T01:01:21;16.70;99.90
13711;DHT22;6927;51.256;9.410;2023-07-31T01:03:47;16.70;99.90
13711;DHT22;6927;51.256;9.410;2023-07-31T01:09:16;16.60;99.90
13711;DHT22;6927;51.256;9.410;2023-07-31T01:11:48;16.70;99.90
13711;DHT22;6927;51.256;9.410;2023-07-31T01:14:14;16.70;99.90
13711;DHT22;6927;51.256;9.410;2023-07-31T01:16:40;16.80;99.90
13711;DHT22;6927;51.256;9.410;2023-07-31T01:19:06;16.80;99.90
13711;DHT22;6927;51.256;9.410;2023-07-31T01:26:36;16.80;99.90
13711;DHT22;6927;51.256;9.410;2023-07-31T01:29:27;16.80;99.90
13711;DHT22;6927;51.256;9.410;2023-07-31T01:31:56;16.80;99.90
13711;DHT22;6927;51.256;9.410;2023-07-31T01:34:24;16.80;99.90
13711;DHT22;6927;51.256;9.410;2023-07-31T01:36:51;16.80;99.90
13711;DHT22;6927;51.256;9.410;2023-07-31T01:39:16;16.80;99.90
13711;DHT22;6927;51.256;9.410;2023-07-31T01:41:42;16.80;99.90
13711;DHT22;6927;51.256;9.410;2023-07-31T01:44:08;16.80;99.90
13711;DHT22;6927;51.256;9.410;2023-07-31T01:46:33;16.80;99.90
13711;DHT22;6927;51.256;9.410;2023-07-31T01:48:59;16.80;99.90
13711;DHT22;6927;51.256;9.410;2023-07-31T01:51:25;16.80;99.90
13711;DHT22;6927;51.256;9.410;2023-07-31T01:53:50;16.80;99.90
13711;DHT22;6927;51.256;9.410;2023-07-31T01:56:16;16.80;99.90
13711;DHT22;6927;51.256;9.410;2023-07-31T01:58:41;16.80;99.90
13711;DHT22;6927;51.256;9.410;2023-07-31T02:01:07;16.80;99.90
13711;DHT22;6927;51.256;9.410;2023-07-31T02:03:33;16.80;99.90
13711;DHT22;6927;51.256;9.410;2023-07-31T02:05:58;16.90;99.90
13711;DHT22;6927;51.256;9.410;2023-07-31T02:08:24;16.90;99.90
13711;DHT22;6927;51.256;9.410;2023-07-31T02:10:50;16.80;99.90
13711;DHT22;6927;51.256;9.410;2023-07-31T02:13:15;16.80;99.90
13711;DHT22;6927;51.256;9.410;2023-07-31T02:15:41;16.80;99.90
13711;DHT22;6927;51.256;9.410;2023-07-31T02:18:06;16.80;99.90
13711;DHT22;6927;51.256;9.410;2023-07-31T02:20:35;16.80;99.90
13711;DHT22;6927;51.256;9.410;2023-07-31T02:23:01;16.80;99.90
13711;DHT22;6927;51.256;9.410;2023-07-31T02:25:27;16.80;99.90
13711;DHT22;6927;51.256;9.410;2023-07-31T02:27:52;16.80;99.90
13711;DHT22;6927;51.256;9.410;2023-07-31T02:30:18;16.80;99.90
13711;DHT22;6927;51.256;9.410;2023-07-31T02:32:43;16.70;99.90
13711;DHT22;6927;51.256;9.410;2023-07-31T02:35:09;16.70;99.90
13711;DHT22;6927;51.256;9.410;2023-07-31T02:37:36;16.60;99.90
13711;DHT22;6927;51.256;9.410;2023-07-31T02:40:03;16.50;99.90
13711;DHT22;6927;51.256;9.410;2023-07-31T02:42:29;16.50;99.90
13711;DHT22;6927;51.256;9.410;2023-07-31T02:44:55;16.40;99.90
13711;DHT22;6927;51.256;9.410;2023-07-31T02:47:22;16.40;99.90
13711;DHT22;6927;51.256;9.410;2023-07-31T02:49:48;16.40;99.90
13711;DHT22;6927;51.256;9.410;2023-07-31T02:52:13;16.40;99.90
13711;DHT22;6927;51.256;9.410;2023-07-31T02:54:39;16.40;99.90
13711;DHT22;6927;51.256;9.410;2023-07-31T02:57:05;16.40;99.90
13711;DHT22;6927;51.256;9.410;2023-07-31T02:59:31;16.40;99.90
13711;DHT22;6927;51.256;9.410;2023-07-31T03:01:57;16.40;99.90
13711;DHT22;6927;51.256;9.410;2023-07-31T03:04:23;16.50;99.90
13711;DHT22;6927;51.256;9.410;2023-07-31T03:06:48;16.50;99.90
13711;DHT22;6927;51.256;9.410;2023-07-31T03:09:14;16.60;99.90
13711;DHT22;6927;51.256;9.410;2023-07-31T03:11:40;16.60;99.90
13711;DHT22;6927;51.256;9.410;2023-07-31T03:14:05;16.70;99.90
13711;DHT22;6927;51.256;9.410;2023-07-31T03:16:33;16.70;99.90
13711;DHT22;6927;51.256;9.410;2023-07-31T03:18:59;16.70;99.90
13711;DHT22;6927;51.256;9.410;2023-07-31T03:21:24;16.70;99.90
13711;DHT22;6927;51.256;9.410;2023-07-31T03:23:50;16.70;99.90
13711;DHT22;6927;51.256;9.410;2023-07-31T03:26:16;16.80;99.90
13711;DHT22;6927;51.256;9.410;2023-07-31T03:28:41;16.80;99.90
13711;DHT22;6927;51.256;9.410;2023-07-31T03:31:07;16.90;99.90
13711;DHT22;6927;51.256;9.410;2023-07-31T03:33:33;16.90;99.90
13711;DHT22;6927;51.256;9.410;2023-07-31T03:35:59;17.00;99.90
13711;DHT22;6927;51.256;9.410;2023-07-31T03:38:25;16.90;99.90
13711;DHT22;6927;51.256;9.410;2023-07-31T03:40:50;17.00;99.90
13711;DHT22;6927;51.256;9.410;2023-07-31T03:43:16;17.00;99.90
13711;DHT22;6927;51.256;9.410;2023-07-31T03:45:42;17.00;99.90
13711;DHT22;6927;51.256;9.410;2023-07-31T03:48:07;17.00;99.90
13711;DHT22;6927;51.256;9.410;2023-07-31T03:50:34;17.00;99.90
13711;DHT22;6927;51.256;9.410;2023-07-31T03:52:59;17.00;99.90
13711;DHT22;6927;51.256;9.410;2023-07-31T03:55:25;17.10;99.90
13711;DHT22;6927;51.256;9.410;2023-07-31T03:57:51;17.10;99.90
13711;DHT22;6927;51.256;9.410;2023-07-31T04:00:16;17.10;99.90
13711;DHT22;6927;51.256;9.410;2023-07-31T04:02:42;17.10;99.90
13711;DHT22;6927;51.256;9.410;2023-07-31T04:05:08;17.10;99.90
13711;DHT22;6927;51.256;9.410;2023-07-31T04:07:34;17.10;99.90
13711;DHT22;6927;51.256;9.410;2023-07-31T04:10:00;17.10;99.90
13711;DHT22;6927;51.256;9.410;2023-07-31T04:12:26;17.20;99.90
13711;DHT22;6927;51.256;9.410;2023-07-31T04:14:52;17.20;99.90
13711;DHT22;6927;51.256;9.410;2023-07-31T04:17:18;17.20;99.90
13711;DHT22;6927;51.256;9.410;2023-07-31T04:19:44;17.20;99.90
13711;DHT22;6927;51.256;9.410;2023-07-31T04:22:10;17.20;99.90
13711;DHT22;6927;51.256;9.410;2023-07-31T04:24:35;17.20;99.90
13711;DHT22;6927;51.256;9.410;2023-07-31T04:27:01;17.20;99.90
13711;DHT22;6927;51.256;9.410;2023-07-31T04:29:26;17.20;99.90
13711;DHT22;6927;51.256;9.410;2023-07-31T04:31:52;17.20;99.90
13711;DHT22;6927;51.256;9.410;2023-07-31T04:34:18;17.20;99.90
13711;DHT22;6927;51.256;9.410;2023-07-31T04:36:43;17.20;99.90
13711;DHT22;6927;51.256;9.410;2023-07-31T04:39:09;17.20;99.90
13711;DHT22;6927;51.256;9.410;2023-07-31T04:41:34;17.20;99.90
13711;DHT22;6927;51.256;9.410;2023-07-31T04:44:01;17.20;99.90
13711;DHT22;6927;51.256;9.410;2023-07-31T04:46:26;17.20;99.90
13711;DHT22;6927;51.256;9.410;2023-07-31T04:48:52;17.20;99.90
13711;DHT22;6927;51.256;9.410;2023-07-31T04:51:18;17.30;99.90
13711;DHT22;6927;51.256;9.410;2023-07-31T04:53:43;17.20;99.90
13711;DHT22;6927;51.256;9.410;2023-07-31T04:56:09;17.20;99.90
13711;DHT22;6927;51.256;9.410;2023-07-31T04:58:35;17.20;99.90
13711;DHT22;6927;51.256;9.410;2023-07-31T05:01:00;17.30;99.90
13711;DHT22;6927;51.256;9.410;2023-07-31T05:03:26;17.30;99.90
13711;DHT22;6927;51.256;9.410;2023-07-31T05:05:52;17.30;99.90
13711;DHT22;6927;51.256;9.410;2023-07-31T05:08:17;17.30;99.90
13711;DHT22;6927;51.256;9.410;2023-07-31T05:10:43;17.30;99.90
13711;DHT22;6927;51.256;9.410;2023-07-31T05:13:09;17.30;99.90
13711;DHT22;6927;51.256;9.410;2023-07-31T05:15:34;17.30;99.90
13711;DHT22;6927;51.256;9.410;2023-07-31T05:18:00;17.40;99.90
13711;DHT22;6927;51.256;9.410;2023-07-31T05:20:26;17.30;99.90
13711;DHT22;6927;51.256;9.410;2023-07-31T05:22:52;17.30;99.90
13711;DHT22;6927;51.256;9.410;2023-07-31T05:25:18;17.30;99.90
13711;DHT22;6927;51.256;9.410;2023-07-31T05:27:44;17.30;99.90
13711;DHT22;6927;51.256;9.410;2023-07-31T05:30:09;17.30;99.90
13711;DHT22;6927;51.256;9.410;2023-07-31T05:32:35;17.30;99.90
13711;DHT22;6927;51.256;9.410;2023-07-31T05:35:01;17.30;99.90
13711;DHT22;6927;51.256;9.410;2023-07-31T05:37:26;17.30;99.90
13711;DHT22;6927;51.256;9.410;2023-07-31T05:39:52;17.30;99.90
13711;DHT22;6927;51.256;9.410;2023-07-31T05:42:18;17.30;99.90
13711;DHT22;6927;51.256;9.410;2023-07-31T05:44:44;17.30;99.90
13711;DHT22;6927;51.256;9.410;2023-07-31T05:47:10;17.30;99.90
13711;DHT22;6927;51.256;9.410;2023-07-31T05:49:36;17.30;99.90
13711;DHT22;6927;51.256;9.410;2023-07-31T05:52:01;17.30;99.90
13711;DHT22;6927;51.256;9.410;2023-07-31T05:54:27;17.30;99.90
13711;DHT22;6927;51.256;9.410;2023-07-31T05:56:53;17.30;99.90
13711;DHT22;6927;51.256;9.410;2023-07-31T05:59:18;17.30;99.90
13711;DHT22;6927;51.256;9.410;2023-07-31T06:01:44;17.30;99.90
13711;DHT22;6927;51.256;9.410;2023-07-31T06:04:09;17.30;99.90
13711;DHT22;6927;51.256;9.410;2023-07-31T06:06:35;17.30;99.90
13711;DHT22;6927;51.256;9.410;2023-07-31T06:09:00;17.20;99.90
13711;DHT22;6927;51.256;9.410;2023-07-31T06:11:26;17.20;99.90
13711;DHT22;6927;51.256;9.410;2023-07-31T06:13:52;17.20;99.90
13711;DHT22;6927;51.256;9.410;2023-07-31T06:16:17;17.30;99.90
13711;DHT22;6927;51.256;9.410;2023-07-31T06:18:43;17.30;99.90
13711;DHT22;6927;51.256;9.410;2023-07-31T06:21:09;17.20;99.90
13711;DHT22;6927;51.256;9.410;2023-07-31T06:23:36;17.20;99.90
13711;DHT22;6927;51.256;9.410;2023-07-31T06:26:01;17.20;99.90
13711;DHT22;6927;51.256;9.410;2023-07-31T06:28:28;17.20;99.90
13711;DHT22;6927;51.256;9.410;2023-07-31T06:31:00;17.20;99.90
13711;DHT22;6927;51.256;9.410;2023-07-31T06:33:26;17.20;99.90
13711;DHT22;6927;51.256;9.410;2023-07-31T06:35:52;17.20;99.90
13711;DHT22;6927;51.256;9.410;2023-07-31T06:38:23;17.10;99.90
13711;DHT22;6927;51.256;9.410;2023-07-31T06:40:49;17.10;99.90
13711;DHT22;6927;51.256;9.410;2023-07-31T06:43:15;17.00;99.90
13711;DHT22;6927;51.256;9.410;2023-07-31T06:45:41;17.00;99.90
13711;DHT22;6927;51.256;9.410;2023-07-31T06:48:06;17.00;99.90
13711;DHT22;6927;51.256;9.410;2023-07-31T06:50:32;16.90;99.90
13711;DHT22;6927;51.256;9.410;2023-07-31T06:52:58;16.80;99.90
13711;DHT22;6927;51.256;9.410;2023-07-31T06:55:24;16.70;99.90
13711;DHT22;6927;51.256;9.410;2023-07-31T06:57:51;16.60;99.90
13711;DHT22;6927;51.256;9.410;2023-07-31T07:00:18;16.40;99.90
13711;DHT22;6927;51.256;9.410;2023-07-31T07:02:45;16.40;99.90
13711;DHT22;6927;51.256;9.410;2023-07-31T07:05:13;16.30;99.90
13711;DHT22;6927;51.256;9.410;2023-07-31T07:07:38;16.30;99.90
13711;DHT22;6927;51.256;9.410;2023-07-31T07:10:04;16.30;99.90
13711;DHT22;6927;51.256;9.410;2023-07-31T07:12:31;16.30;99.90
13711;DHT22;6927;51.256;9.410;2023-07-31T07:14:57;16.40;99.90
13711;DHT22;6927;51.256;9.410;2023-07-31T07:17:24;16.60;99.90
13711;DHT22;6927;51.256;9.410;2023-07-31T07:19:50;16.70;99.90
13711;DHT22;6927;51.256;9.410;2023-07-31T07:22:15;16.80;99.90
13711;DHT22;6927;51.256;9.410;2023-07-31T07:24:41;16.90;99.90
13711;DHT22;6927;51.256;9.410;2023-07-31T07:27:07;16.90;99.90
13711;DHT22;6927;51.256;9.410;2023-07-31T07:29:34;17.00;99.90
13711;DHT22;6927;51.256;9.410;2023-07-31T07:32:00;17.00;99.90
13711;DHT22;6927;51.256;9.410;2023-07-31T07:34:27;17.10;99.90
13711;DHT22;6927;51.256;9.410;2023-07-31T07:36:53;17.10;99.90
13711;DHT22;6927;51.256;9.410;2023-07-31T07:39:18;17.20;99.90
13711;DHT22;6927;51.256;9.410;2023-07-31T07:41:44;17.20;99.90
13711;DHT22;6927;51.256;9.410;2023-07-31T07:44:10;17.30;99.90
13711;DHT22;6927;51.256;9.410;2023-07-31T07:46:35;17.30;99.90
13711;DHT22;6927;51.256;9.410;2023-07-31T07:49:03;17.30;99.90
13711;DHT22;6927;51.256;9.410;2023-07-31T07:51:28;17.40;99.90
13711;DHT22;6927;51.256;9.410;2023-07-31T07:53:56;17.50;99.90
13711;DHT22;6927;51.256;9.410;2023-07-31T07:56:21;17.60;99.90
13711;DHT22;6927;51.256;9.410;2023-07-31T07:58:49;17.80;99.90
13711;DHT22;6927;51.256;9.410;2023-07-31T08:01:15;17.90;99.90
13711;DHT22;6927;51.256;9.410;2023-07-31T08:03:41;18.10;99.90
13711;DHT22;6927;51.256;9.410;2023-07-31T08:06:06;18.30;99.90
13711;DHT22;6927;51.256;9.410;2023-07-31T08:08:34;18.50;99.90
13711;DHT22;6927;51.256;9.410;2023-07-31T08:11:00;18.60;99.90
13711;DHT22;6927;51.256;9.410;2023-07-31T08:13:25;18.70;99.90
13711;DHT22;6927;51.256;9.410;2023-07-31T08:15:51;18.70;99.90
13711;DHT22;6927;51.256;9.410;2023-07-31T08:18:17;18.70;99.90
13711;DHT22;6927;51.256;9.410;2023-07-31T08:20:42;18.60;99.90
13711;DHT22;6927;51.256;9.410;2023-07-31T08:23:09;18.60;99.90
13711;DHT22;6927;51.256;9.410;2023-07-31T08:25:35;18.50;99.90
13711;DHT22;6927;51.256;9.410;2023-07-31T08:28:01;18.40;99.90
13711;DHT22;6927;51.256;9.410;2023-07-31T08:30:27;18.30;99.90
13711;DHT22;6927;51.256;9.410;2023-07-31T08:32:52;18.20;99.90
13711;DHT22;6927;51.256;9.410;2023-07-31T08:35:18;18.20;99.90
13711;DHT22;6927;51.256;9.410;2023-07-31T08:38:11;18.10;99.90
13711;DHT22;6927;51.256;9.410;2023-07-31T08:40:40;18.00;99.90
13711;DHT22;6927;51.256;9.410;2023-07-31T08:43:09;18.00;99.90
13711;DHT22;6927;51.256;9.410;2023-07-31T08:45:35;18.00;99.90
13711;DHT22;6927;51.256;9.410;2023-07-31T08:48:01;18.10;99.90
13711;DHT22;6927;51.256;9.410;2023-07-31T08:50:27;18.10;99.90
13711;DHT22;6927;51.256;9.410;2023-07-31T08:52:53;18.10;99.90
13711;DHT22;6927;51.256;9.410;2023-07-31T08:55:19;18.10;99.90
13711;DHT22;6927;51.256;9.410;2023-07-31T08:57:51;18.00;99.90
13711;DHT22;6927;51.256;9.410;2023-07-31T09:00:17;18.00;99.90
13711;DHT22;6927;51.256;9.410;2023-07-31T09:02:55;17.90;99.90
13711;DHT22;6927;51.256;9.410;2023-07-31T09:05:21;17.80;99.90
13711;DHT22;6927;51.256;9.410;2023-07-31T09:07:47;17.80;99.90
13711;DHT22;6927;51.256;9.410;2023-07-31T09:10:14;17.80;99.90
13711;DHT22;6927;51.256;9.410;2023-07-31T09:12:40;17.70;99.90
13711;DHT22;6927;51.256;9.410;2023-07-31T09:15:06;17.70;99.90
13711;DHT22;6927;51.256;9.410;2023-07-31T09:17:34;17.60;99.90
13711;DHT22;6927;51.256;9.410;2023-07-31T09:20:20;17.60;99.90
13711;DHT22;6927;51.256;9.410;2023-07-31T09:22:48;17.70;99.90
13711;DHT22;6927;51.256;9.410;2023-07-31T09:25:18;17.70;99.90
13711;DHT22;6927;51.256;9.410;2023-07-31T09:27:59;17.80;99.90
13711;DHT22;6927;51.256;9.410;2023-07-31T09:30:24;17.80;99.90
13711;DHT22;6927;51.256;9.410;2023-07-31T09:33:06;17.80;99.90
13711;DHT22;6927;51.256;9.410;2023-07-31T09:35:35;17.80;99.90
13711;DHT22;6927;51.256;9.410;2023-07-31T09:38:05;17.70;99.90
13711;DHT22;6927;51.256;9.410;2023-07-31T09:40:36;17.60;99.90
13711;DHT22;6927;51.256;9.410;2023-07-31T09:43:11;17.40;99.90
13711;DHT22;6927;51.256;9.410;2023-07-31T09:45:41;17.30;99.90
13711;DHT22;6927;51.256;9.410;2023-07-31T09:48:14;17.20;99.90
13711;DHT22;6927;51.256;9.410;2023-07-31T09:50:48;17.30;99.90
13711;DHT22;6927;51.256;9.410;2023-07-31T09:53:14;17.30;99.90
13711;DHT22;6927;51.256;9.410;2023-07-31T09:55:41;17.40;99.90
13711;DHT22;6927;51.256;9.410;2023-07-31T09:58:08;17.40;99.90
13711;DHT22;6927;51.256;9.410;2023-07-31T10:00:35;17.60;99.90
13711;DHT22;6927;51.256;9.410;2023-07-31T10:03:10;17.70;99.90
13711;DHT22;6927;51.256;9.410;2023-07-31T10:05:46;17.90;99.90
13711;DHT22;6927;51.256;9.410;2023-07-31T10:08:15;18.00;99.90
13711;DHT22;6927;51.256;9.410;2023-07-31T10:10:43;18.20;99.90
13711;DHT22;6927;51.256;9.410;2023-07-31T10:13:08;18.40;99.90
13711;DHT22;6927;51.256;9.410;2023-07-31T10:15:35;18.50;99.90
13711;DHT22;6927;51.256;9.410;2023-07-31T10:18:01;18.70;99.90
13711;DHT22;6927;51.256;9.410;2023-07-31T10:20:28;18.90;99.90
13711;DHT22;6927;51.256;9.410;2023-07-31T10:22:57;19.30;99.90
13711;DHT22;6927;51.256;9.410;2023-07-31T10:25:26;19.40;99.90
13711;DHT22;6927;51.256;9.410;2023-07-31T10:27:52;19.40;99.90
13711;DHT22;6927;51.256;9.410;2023-07-31T10:30:20;19.20;99.90
13711;DHT22;6927;51.256;9.410;2023-07-31T10:32:48;19.00;99.90
13711;DHT22;6927;51.256;9.410;2023-07-31T10:35:16;19.00;99.90
13711;DHT22;6927;51.256;9.410;2023-07-31T10:37:43;19.10;99.90
13711;DHT22;6927;51.256;9.410;2023-07-31T10:40:26;19.30;99.90
13711;DHT22;6927;51.256;9.410;2023-07-31T10:42:54;19.50;99.90
13711;DHT22;6927;51.256;9.410;2023-07-31T10:45:31;19.40;99.90
13711;DHT22;6927;51.256;9.410;2023-07-31T10:48:01;19.30;99.90
13711;DHT22;6927;51.256;9.410;2023-07-31T10:50:29;19.20;99.90
13711;DHT22;6927;51.256;9.410;2023-07-31T10:52:58;19.10;99.90
13711;DHT22;6927;51.256;9.410;2023-07-31T10:55:40;19.10;99.90
13711;DHT22;6927;51.256;9.410;2023-07-31T10:58:08;19.00;99.90
13711;DHT22;6927;51.256;9.410;2023-07-31T11:01:04;19.00;99.90
13711;DHT22;6927;51.256;9.410;2023-07-31T11:03:58;18.90;99.90
13711;DHT22;6927;51.256;9.410;2023-07-31T11:06:32;19.20;99.90
13711;DHT22;6927;51.256;9.410;2023-07-31T11:08:57;19.40;99.90
13711;DHT22;6927;51.256;9.410;2023-07-31T11:11:30;19.60;99.90
13711;DHT22;6927;51.256;9.410;2023-07-31T11:13:59;19.70;99.90
13711;DHT22;6927;51.256;9.410;2023-07-31T11:16:25;19.80;99.90
13711;DHT22;6927;51.256;9.410;2023-07-31T11:18:52;19.80;99.90
13711;DHT22;6927;51.256;9.410;2023-07-31T11:21:21;19.70;99.90
13711;DHT22;6927;51.256;9.410;2023-07-31T11:23:57;19.40;99.90
13711;DHT22;6927;51.256;9.410;2023-07-31T11:26:24;19.30;99.90
13711;DHT22;6927;51.256;9.410;2023-07-31T11:28:50;19.20;99.90
13711;DHT22;6927;51.256;9.410;2023-07-31T11:31:17;19.10;99.90
13711;DHT22;6927;51.256;9.410;2023-07-31T11:33:43;19.10;99.90
13711;DHT22;6927;51.256;9.410;2023-07-31T11:36:19;19.00;99.90
13711;DHT22;6927;51.256;9.410;2023-07-31T11:38:45;19.10;99.90
13711;DHT22;6927;51.256;9.410;2023-07-31T11:41:14;19.20;99.90
13711;DHT22;6927;51.256;9.410;2023-07-31T11:43:41;19.30;99.90
13711;DHT22;6927;51.256;9.410;2023-07-31T11:46:07;19.20;99.90
13711;DHT22;6927;51.256;9.410;2023-07-31T11:48:34;19.30;99.90
13711;DHT22;6927;51.256;9.410;2023-07-31T11:51:05;19.30;99.90
13711;DHT22;6927;51.256;9.410;2023-07-31T11:53:33;19.40;99.90
13711;DHT22;6927;51.256;9.410;2023-07-31T11:55:59;19.50;99.90
13711;DHT22;6927;51.256;9.410;2023-07-31T11:58:29;19.50;99.90
13711;DHT22;6927;51.256;9.410;2023-07-31T12:00:56;19.50;99.90
13711;DHT22;6927;51.256;9.410;2023-07-31T12:03:24;19.40;99.90
13711;DHT22;6927;51.256;9.410;2023-07-31T12:05:50;19.40;99.90
13711;DHT22;6927;51.256;9.410;2023-07-31T12:08:16;19.30;99.90
13711;DHT22;6927;51.256;9.410;2023-07-31T12:10:41;19.20;99.90
13711;DHT22;6927;51.256;9.410;2023-07-31T12:13:24;19.20;99.90
13711;DHT22;6927;51.256;9.410;2023-07-31T12:15:54;19.10;99.90
13711;DHT22;6927;51.256;9.410;2023-07-31T12:18:22;19.00;99.90
13711;DHT22;6927;51.256;9.410;2023-07-31T12:20:49;18.90;99.90
13711;DHT22;6927;51.256;9.410;2023-07-31T12:23:20;18.90;99.90
13711;DHT22;6927;51.256;9.410;2023-07-31T12:26:12;18.80;99.90
13711;DHT22;6927;51.256;9.410;2023-07-31T12:28:41;18.70;99.90
13711;DHT22;6927;51.256;9.410;2023-07-31T12:31:09;18.60;99.90
13711;DHT22;6927;51.256;9.410;2023-07-31T12:33:37;18.60;99.90
13711;DHT22;6927;51.256;9.410;2023-07-31T12:36:12;18.60;99.90
13711;DHT22;6927;51.256;9.410;2023-07-31T12:38:38;18.50;99.90
13711;DHT22;6927;51.256;9.410;2023-07-31T12:41:03;18.40;99.90
13711;DHT22;6927;51.256;9.410;2023-07-31T12:43:29;18.40;99.90
13711;DHT22;6927;51.256;9.410;2023-07-31T12:45:55;18.40;99.90
13711;DHT22;6927;51.256;9.410;2023-07-31T12:48:21;18.40;99.90
13711;DHT22;6927;51.256;9.410;2023-07-31T12:50:47;18.40;99.90
13711;DHT22;6927;51.256;9.410;2023-07-31T12:53:13;18.50;99.90
13711;DHT22;6927;51.256;9.410;2023-07-31T12:55:38;18.60;99.90
13711;DHT22;6927;51.256;9.410;2023-07-31T12:58:04;18.60;99.90
13711;DHT22;6927;51.256;9.410;2023-07-31T13:00:29;18.70;99.90
13711;DHT22;6927;51.256;9.410;2023-07-31T13:02:55;18.70;99.90
13711;DHT22;6927;51.256;9.410;2023-07-31T13:05:21;18.80;99.90
13711;DHT22;6927;51.256;9.410;2023-07-31T13:07:47;18.80;99.90
13711;DHT22;6927;51.256;9.410;2023-07-31T13:10:13;18.90;99.90
13711;DHT22;6927;51.256;9.410;2023-07-31T13:12:39;19.00;99.90
13711;DHT22;6927;51.256;9.410;2023-07-31T13:15:05;19.10;99.90
13711;DHT22;6927;51.256;9.410;2023-07-31T13:17:31;19.30;99.90
13711;DHT22;6927;51.256;9.410;2023-07-31T13:19:57;19.40;99.90
13711;DHT22;6927;51.256;9.410;2023-07-31T13:22:23;19.40;99.90
13711;DHT22;6927;51.256;9.410;2023-07-31T13:24:48;19.50;99.90
13711;DHT22;6927;51.256;9.410;2023-07-31T13:27:14;19.70;99.90
13711;DHT22;6927;51.256;9.410;2023-07-31T13:29:44;19.90;99.90
13711;DHT22;6927;51.256;9.410;2023-07-31T13:32:10;20.10;99.90
13711;DHT22;6927;51.256;9.410;2023-07-31T13:34:35;20.30;99.90
13711;DHT22;6927;51.256;9.410;2023-07-31T13:37:01;20.40;99.90
13711;DHT22;6927;51.256;9.410;2023-07-31T13:39:26;20.50;99.90
13711;DHT22;6927;51.256;9.410;2023-07-31T13:41:52;20.50;99.90
13711;DHT22;6927;51.256;9.410;2023-07-31T13:44:17;20.50;99.90
13711;DHT22;6927;51.256;9.410;2023-07-31T13:46:43;20.30;99.90
13711;DHT22;6927;51.256;9.410;2023-07-31T13:49:08;20.20;99.90
13711;DHT22;6927;51.256;9.410;2023-07-31T13:51:34;20.10;99.90
13711;DHT22;6927;51.256;9.410;2023-07-31T13:54:01;20.10;99.90
13711;DHT22;6927;51.256;9.410;2023-07-31T13:56:26;20.20;99.90
13711;DHT22;6927;51.256;9.410;2023-07-31T13:58:52;20.30;99.90
13711;DHT22;6927;51.256;9.410;2023-07-31T14:01:18;20.30;99.90
13711;DHT22;6927;51.256;9.410;2023-07-31T14:03:43;20.40;99.90
13711;DHT22;6927;51.256;9.410;2023-07-31T14:06:09;20.30;99.90
13711;DHT22;6927;51.256;9.410;2023-07-31T14:08:34;20.30;99.90
13711;DHT22;6927;51.256;9.410;2023-07-31T14:11:00;20.30;99.90
13711;DHT22;6927;51.256;9.410;2023-07-31T14:13:26;20.30;99.90
13711;DHT22;6927;51.256;9.410;2023-07-31T14:15:51;20.40;99.90
13711;DHT22;6927;51.256;9.410;2023-07-31T14:18:17;20.50;99.90
13711;DHT22;6927;51.256;9.410;2023-07-31T14:20:43;20.70;99.90
13711;DHT22;6927;51.256;9.410;2023-07-31T14:23:09;20.80;99.90
13711;DHT22;6927;51.256;9.410;2023-07-31T14:25:34;21.10;99.90
13711;DHT22;6927;51.256;9.410;2023-07-31T14:28:00;21.00;99.90
13711;DHT22;6927;51.256;9.410;2023-07-31T14:30:28;21.00;99.90
13711;DHT22;6927;51.256;9.410;2023-07-31T14:32:54;21.10;99.90
13711;DHT22;6927;51.256;9.410;2023-07-31T14:35:20;21.20;99.90
13711;DHT22;6927;51.256;9.410;2023-07-31T14:37:45;21.20;99.90
13711;DHT22;6927;51.256;9.410;2023-07-31T14:40:12;21.10;99.90
13711;DHT22;6927;51.256;9.410;2023-07-31T14:42:39;21.10;99.90
13711;DHT22;6927;51.256;9.410;2023-07-31T14:45:06;20.90;99.90
13711;DHT22;6927;51.256;9.410;2023-07-31T14:47:32;20.70;99.90
13711;DHT22;6927;51.256;9.410;2023-07-31T14:50:00;20.70;99.90
13711;DHT22;6927;51.256;9.410;2023-07-31T14:52:26;20.60;99.90
13711;DHT22;6927;51.256;9.410;2023-07-31T14:54:52;20.50;99.90
13711;DHT22;6927;51.256;9.410;2023-07-31T14:57:18;20.50;99.90
13711;DHT22;6927;51.256;9.410;2023-07-31T14:59:45;20.50;99.90
13711;DHT22;6927;51.256;9.410;2023-07-31T15:02:10;20.50;99.90
13711;DHT22;6927;51.256;9.410;2023-07-31T15:04:36;20.50;99.90
13711;DHT22;6927;51.256;9.410;2023-07-31T15:07:02;20.50;99.90
13711;DHT22;6927;51.256;9.410;2023-07-31T15:09:28;20.40;99.90
13711;DHT22;6927;51.256;9.410;2023-07-31T15:11:55;20.30;99.90
13711;DHT22;6927;51.256;9.410;2023-07-31T15:14:22;20.30;99.90
13711;DHT22;6927;51.256;9.410;2023-07-31T15:16:48;20.30;99.90
13711;DHT22;6927;51.256;9.410;2023-07-31T15:19:14;20.30;99.90
13711;DHT22;6927;51.256;9.410;2023-07-31T15:21:40;20.30;99.90
13711;DHT22;6927;51.256;9.410;2023-07-31T15:24:06;20.30;99.90
13711;DHT22;6927;51.256;9.410;2023-07-31T15:26:31;20.30;99.90
13711;DHT22;6927;51.256;9.410;2023-07-31T15:29:02;20.30;99.90
13711;DHT22;6927;51.256;9.410;2023-07-31T15:31:31;20.30;99.90
13711;DHT22;6927;51.256;9.410;2023-07-31T15:33:56;20.30;99.90
13711;DHT22;6927;51.256;9.410;2023-07-31T15:36:22;20.30;99.90
13711;DHT22;6927;51.256;9.410;2023-07-31T15:38:48;20.30;99.90
13711;DHT22;6927;51.256;9.410;2023-07-31T15:41:17;20.30;99.90
13711;DHT22;6927;51.256;9.410;2023-07-31T15:43:42;20.20;99.90
13711;DHT22;6927;51.256;9.410;2023-07-31T15:46:08;20.30;99.90
13711;DHT22;6927;51.256;9.410;2023-07-31T15:48:34;20.30;99.90
13711;DHT22;6927;51.256;9.410;2023-07-31T15:50:59;20.20;99.90